Private Wetterstation Sandau
Wetterdaten: Dienstag, 19.06.2012
Datum Zeit Temp. A. Feuchte A. Luftdruck Regen Wind Richtung Richtung Taupunkt Windchill
19.06.2012 00:01 16,5 C 65 % 1020,4 hPa 0,0 l/m 0,0 km/h (0 Bft) N-NW 337 9,9 C 16,5 C
19.06.2012 00:06 16,6 C 65 % 1020,4 hPa 0,0 l/m 0,0 km/h (0 Bft) W-NW 292 10,0 C 16,6 C
19.06.2012 00:11 16,6 C 65 % 1020,3 hPa 0,0 l/m 0,0 km/h (0 Bft) W-NW 292 10,0 C 16,6 C
19.06.2012 00:16 16,8 C 65 % 1020,4 hPa 0,0 l/m 0,0 km/h (0 Bft) W-NW 292 10,2 C 16,8 C
19.06.2012 00:21 16,8 C 65 % 1020,5 hPa 0,0 l/m 0,0 km/h (0 Bft) W-NW 292 10,2 C 16,8 C
19.06.2012 00:26 16,8 C 65 % 1020,6 hPa 0,0 l/m 0,0 km/h (0 Bft) W-NW 292 10,2 C 16,8 C
19.06.2012 00:31 16,7 C 65 % 1020,7 hPa 0,0 l/m 0,0 km/h (0 Bft) W-NW 292 10,1 C 16,7 C
19.06.2012 00:36 16,6 C 65 % 1020,7 hPa 0,0 l/m 1,4 km/h (1 Bft) W-NW 292 10,0 C 16,6 C
19.06.2012 00:41 16,6 C 66 % 1020,8 hPa 0,0 l/m 0,0 km/h (0 Bft) N-NW 337 10,2 C 16,6 C
19.06.2012 00:46 16,5 C 65 % 1020,5 hPa 0,0 l/m 0,0 km/h (0 Bft) NW 315 9,9 C 16,5 C
19.06.2012 00:51 16,3 C 66 % 1020,5 hPa 0,0 l/m 0,0 km/h (0 Bft) N-NW 337 9,9 C 16,3 C
19.06.2012 00:56 16,1 C 66 % 1020,7 hPa 0,0 l/m 0,0 km/h (0 Bft) N 360 9,7 C 16,1 C
19.06.2012 01:01 15,9 C 66 % 1020,8 hPa 0,0 l/m 2,2 km/h (1 Bft) NW 315 9,6 C 15,9 C
19.06.2012 01:06 15,9 C 67 % 1020,7 hPa 0,0 l/m 2,2 km/h (1 Bft) N-NW 337 9,8 C 15,9 C
19.06.2012 01:11 15,9 C 67 % 1020,8 hPa 0,0 l/m 0,0 km/h (0 Bft) NW 315 9,8 C 15,9 C
19.06.2012 01:16 15,9 C 67 % 1020,7 hPa 0,0 l/m 2,2 km/h (1 Bft) N 360 9,8 C 15,9 C
19.06.2012 01:21 15,8 C 68 % 1020,9 hPa 0,0 l/m 2,5 km/h (1 Bft) N-NO 22 9,9 C 15,8 C
19.06.2012 01:26 15,6 C 68 % 1020,9 hPa 0,0 l/m 0,0 km/h (0 Bft) N 360 9,7 C 15,6 C
19.06.2012 01:31 15,5 C 69 % 1020,9 hPa 0,0 l/m 1,4 km/h (1 Bft) N-NO 22 9,8 C 15,5 C
19.06.2012 01:36 15,4 C 69 % 1021,1 hPa 0,0 l/m 0,0 km/h (0 Bft) N-NW 337 9,7 C 15,4 C
19.06.2012 01:41 15,4 C 69 % 1021,1 hPa 0,0 l/m 0,0 km/h (0 Bft) NW 315 9,7 C 15,4 C
19.06.2012 01:46 15,3 C 69 % 1021,2 hPa 0,0 l/m 2,2 km/h (1 Bft) NW 315 9,6 C 15,3 C
19.06.2012 01:51 15,3 C 69 % 1021,1 hPa 0,0 l/m 0,0 km/h (0 Bft) N-NW 337 9,6 C 15,3 C
19.06.2012 01:56 15,2 C 69 % 1021,1 hPa 0,0 l/m 0,0 km/h (0 Bft) W-NW 292 9,6 C 15,2 C
19.06.2012 02:01 15,3 C 69 % 1021,0 hPa 0,0 l/m 2,2 km/h (1 Bft) W-NW 292 9,6 C 15,3 C
19.06.2012 02:06 15,3 C 69 % 1021,1 hPa 0,0 l/m 0,0 km/h (0 Bft) W-NW 292 9,6 C 15,3 C
19.06.2012 02:11 15,4 C 69 % 1021,2 hPa 0,0 l/m 0,0 km/h (0 Bft) N-NW 337 9,7 C 15,4 C
19.06.2012 02:16 15,3 C 70 % 1021,2 hPa 0,0 l/m 0,0 km/h (0 Bft) NW 315 9,9 C 15,3 C
19.06.2012 02:21 15,3 C 70 % 1021,2 hPa 0,0 l/m 0,0 km/h (0 Bft) NW 315 9,9 C 15,3 C
19.06.2012 02:26 15,2 C 70 % 1021,1 hPa 0,0 l/m 0,0 km/h (0 Bft) NW 315 9,8 C 15,2 C
19.06.2012 02:31 15,1 C 70 % 1021,2 hPa 0,0 l/m 1,1 km/h (1 Bft) NW 315 9,7 C 15,1 C
19.06.2012 02:36 14,9 C 70 % 1021,2 hPa 0,0 l/m 0,0 km/h (0 Bft) NW 315 9,5 C 14,9 C
19.06.2012 02:41 14,9 C 71 % 1021,4 hPa 0,0 l/m 1,4 km/h (1 Bft) NW 315 9,7 C 14,9 C
19.06.2012 02:46 15,0 C 71 % 1021,3 hPa 0,0 l/m 1,8 km/h (1 Bft) W 270 9,8 C 15,0 C
19.06.2012 02:51 15,1 C 71 % 1021,4 hPa 0,0 l/m 4,0 km/h (1 Bft) W-SW 247 9,9 C 15,1 C
19.06.2012 02:56 15,1 C 71 % 1021,5 hPa 0,0 l/m 3,2 km/h (1 Bft) SW 225 9,9 C 15,1 C
19.06.2012 03:01 14,9 C 71 % 1021,7 hPa 0,0 l/m 0,0 km/h (0 Bft) SW 225 9,7 C 14,9 C
19.06.2012 03:06 14,9 C 71 % 1021,7 hPa 0,0 l/m 0,0 km/h (0 Bft) SW 225 9,7 C 14,9 C
19.06.2012 03:11 14,9 C 71 % 1021,7 hPa 0,0 l/m 2,2 km/h (1 Bft) SW 225 9,7 C 14,9 C
19.06.2012 03:16 14,9 C 71 % 1021,7 hPa 0,0 l/m 2,5 km/h (1 Bft) W-SW 247 9,7 C 14,9 C
19.06.2012 03:21 14,8 C 71 % 1021,8 hPa 0,0 l/m 0,0 km/h (0 Bft) W-NW 292 9,6 C 14,8 C
19.06.2012 03:26 14,7 C 71 % 1021,8 hPa 0,0 l/m 0,0 km/h (0 Bft) W 270 9,5 C 14,7 C
19.06.2012 03:31 14,5 C 71 % 1021,9 hPa 0,0 l/m 0,0 km/h (0 Bft) W-NW 292 9,3 C 14,5 C
19.06.2012 03:36 14,4 C 71 % 1022,0 hPa 0,0 l/m 1,4 km/h (1 Bft) W 270 9,2 C 14,4 C
19.06.2012 03:41 14,3 C 72 % 1022,1 hPa 0,0 l/m 0,0 km/h (0 Bft) W-NW 292 9,3 C 14,3 C
19.06.2012 03:46 14,2 C 72 % 1022,1 hPa 0,0 l/m 0,0 km/h (0 Bft) W-NW 292 9,2 C 14,2 C
19.06.2012 03:51 14,1 C 72 % 1021,9 hPa 0,0 l/m 0,0 km/h (0 Bft) N-NW 337 9,1 C 14,1 C
19.06.2012 03:56 13,8 C 73 % 1022,0 hPa 0,0 l/m 1,1 km/h (1 Bft) NW 315 9,0 C 13,8 C
19.06.2012 04:01 13,6 C 73 % 1022,1 hPa 0,0 l/m 0,0 km/h (0 Bft) W-NW 292 8,9 C 13,6 C
19.06.2012 04:06 13,6 C 74 % 1022,1 hPa 0,0 l/m 0,0 km/h (0 Bft) W-NW 292 9,1 C 13,6 C
19.06.2012 04:11 13,6 C 74 % 1022,1 hPa 0,0 l/m 0,0 km/h (0 Bft) W-NW 292 9,1 C 13,6 C
19.06.2012 04:16 13,6 C 74 % 1022,0 hPa 0,0 l/m 0,0 km/h (0 Bft) W-NW 292 9,1 C 13,6 C
19.06.2012 04:21 13,6 C 74 % 1022,2 hPa 0,0 l/m 0,0 km/h (0 Bft) W-NW 292 9,1 C 13,6 C
19.06.2012 04:26 13,6 C 74 % 1022,2 hPa 0,0 l/m 0,0 km/h (0 Bft) W 270 9,1 C 13,6 C
19.06.2012 04:31 13,8 C 74 % 1022,4 hPa 0,0 l/m 1,4 km/h (1 Bft) S-SW 202 9,2 C 13,8 C
19.06.2012 04:36 13,8 C 74 % 1022,5 hPa 0,0 l/m 1,1 km/h (1 Bft) S 180 9,2 C 13,8 C
19.06.2012 04:41 13,8 C 74 % 1022,4 hPa 0,0 l/m 0,0 km/h (0 Bft) S-SO 157 9,2 C 13,8 C
19.06.2012 04:46 13,6 C 74 % 1022,5 hPa 0,0 l/m 0,0 km/h (0 Bft) W-SW 247 9,1 C 13,6 C
19.06.2012 04:51 13,4 C 75 % 1022,5 hPa 0,0 l/m 0,0 km/h (0 Bft) W-SW 247 9,1 C 13,4 C
19.06.2012 04:56 13,3 C 75 % 1022,6 hPa 0,0 l/m 0,0 km/h (0 Bft) W-SW 247 9,0 C 13,3 C
19.06.2012 05:01 13,3 C 75 % 1022,7 hPa 0,0 l/m 0,0 km/h (0 Bft) SW 225 9,0 C 13,3 C
19.06.2012 05:06 13,3 C 75 % 1022,7 hPa 0,0 l/m 0,0 km/h (0 Bft) SW 225 9,0 C 13,3 C
19.06.2012 05:11 13,3 C 75 % 1022,6 hPa 0,0 l/m 0,0 km/h (0 Bft) O-SO 112 9,0 C 13,3 C
19.06.2012 05:16 13,3 C 75 % 1022,7 hPa 0,0 l/m 0,0 km/h (0 Bft) SO 135 9,0 C 13,3 C
19.06.2012 05:21 13,3 C 76 % 1022,4 hPa 0,0 l/m 1,1 km/h (1 Bft) SO 135 9,2 C 13,3 C
19.06.2012 05:26 13,3 C 76 % 1022,5 hPa 0,0 l/m 0,0 km/h (0 Bft) SO 135 9,2 C 13,3 C
19.06.2012 05:31 13,3 C 76 % 1022,5 hPa 0,0 l/m 0,0 km/h (0 Bft) SO 135 9,2 C 13,3 C
19.06.2012 05:36 13,4 C 76 % 1022,5 hPa 0,0 l/m 0,0 km/h (0 Bft) SO 135 9,3 C 13,4 C
19.06.2012 05:41 13,4 C 76 % 1022,4 hPa 0,0 l/m 0,0 km/h (0 Bft) SO 135 9,3 C 13,4 C
19.06.2012 05:46 13,6 C 77 % 1022,6 hPa 0,0 l/m 1,1 km/h (1 Bft) SO 135 9,6 C 13,6 C
19.06.2012 05:51 14,3 C 78 % 1022,5 hPa 0,0 l/m 0,0 km/h (0 Bft) S 180 10,5 C 14,3 C
19.06.2012 05:56 15,0 C 77 % 1022,5 hPa 0,0 l/m 0,0 km/h (0 Bft) S-SO 157 11,0 C 15,0 C
19.06.2012 06:01 15,7 C 75 % 1022,6 hPa 0,0 l/m 0,0 km/h (0 Bft) S-SO 157 11,3 C 15,7 C
19.06.2012 06:06 16,2 C 73 % 1022,6 hPa 0,0 l/m 3,2 km/h (1 Bft) S-SO 157 11,4 C 16,2 C
19.06.2012 06:11 16,6 C 71 % 1022,7 hPa 0,0 l/m 2,9 km/h (1 Bft) S 180 11,3 C 16,6 C
19.06.2012 06:16 16,8 C 70 % 1022,7 hPa 0,0 l/m 2,5 km/h (1 Bft) SO 135 11,3 C 16,8 C
19.06.2012 06:21 16,9 C 69 % 1022,6 hPa 0,0 l/m 4,7 km/h (1 Bft) S-SO 157 11,2 C 16,9 C
19.06.2012 06:26 17,1 C 68 % 1022,6 hPa 0,0 l/m 3,6 km/h (1 Bft) S-SO 157 11,1 C 17,1 C
19.06.2012 06:31 17,2 C 68 % 1022,5 hPa 0,0 l/m 1,4 km/h (1 Bft) S-SW 202 11,2 C 17,2 C
19.06.2012 06:36 17,3 C 68 % 1022,7 hPa 0,0 l/m 1,4 km/h (1 Bft) S-SW 202 11,3 C 17,3 C
19.06.2012 06:41 17,3 C 68 % 1022,6 hPa 0,0 l/m 2,2 km/h (1 Bft) S-SW 202 11,3 C 17,3 C
19.06.2012 06:46 17,3 C 68 % 1022,6 hPa 0,0 l/m 0,0 km/h (0 Bft) S-SW 202 11,3 C 17,3 C
19.06.2012 06:51 17,4 C 68 % 1022,6 hPa 0,0 l/m 0,0 km/h (0 Bft) S 180 11,4 C 17,4 C
19.06.2012 06:56 17,5 C 68 % 1022,7 hPa 0,0 l/m 2,2 km/h (1 Bft) S 180 11,5 C 17,5 C
19.06.2012 07:01 17,6 C 68 % 1022,8 hPa 0,0 l/m 2,9 km/h (1 Bft) S-SW 202 11,6 C 17,6 C
19.06.2012 07:06 17,8 C 67 % 1022,6 hPa 0,0 l/m 0,0 km/h (0 Bft) W 270 11,6 C 17,8 C
19.06.2012 07:11 17,7 C 67 % 1022,6 hPa 0,0 l/m 0,0 km/h (0 Bft) W 270 11,5 C 17,7 C
19.06.2012 07:16 17,8 C 68 % 1022,6 hPa 0,0 l/m 0,0 km/h (0 Bft) W-NW 292 11,8 C 17,8 C
19.06.2012 07:21 18,1 C 68 % 1022,7 hPa 0,0 l/m 0,0 km/h (0 Bft) W 270 12,1 C 18,1 C
19.06.2012 07:26 18,2 C 66 % 1022,6 hPa 0,0 l/m 0,0 km/h (0 Bft) W 270 11,7 C 18,2 C
19.06.2012 07:31 18,2 C 66 % 1022,7 hPa 0,0 l/m 0,0 km/h (0 Bft) W 270 11,7 C 18,2 C
19.06.2012 07:36 18,5 C 66 % 1022,7 hPa 0,0 l/m 4,0 km/h (1 Bft) W-NW 292 12,0 C 18,5 C
19.06.2012 07:41 18,5 C 66 % 1022,5 hPa 0,0 l/m 2,5 km/h (1 Bft) W 270 12,0 C 18,5 C
19.06.2012 07:46 18,8 C 65 % 1022,5 hPa 0,0 l/m 3,6 km/h (1 Bft) W-NW 292 12,1 C 18,8 C
19.06.2012 07:51 18,8 C 65 % 1022,5 hPa 0,0 l/m 0,0 km/h (0 Bft) W-NW 292 12,1 C 18,8 C
19.06.2012 07:56 18,9 C 64 % 1022,5 hPa 0,0 l/m 1,4 km/h (1 Bft) W-NW 292 11,9 C 18,9 C
19.06.2012 08:01 18,9 C 64 % 1022,6 hPa 0,0 l/m 0,0 km/h (0 Bft) N-NW 337 11,9 C 18,9 C
19.06.2012 08:06 19,1 C 64 % 1022,6 hPa 0,0 l/m 1,4 km/h (1 Bft) W 270 12,1 C 19,1 C
19.06.2012 08:11 19,1 C 63 % 1022,6 hPa 0,0 l/m 0,0 km/h (0 Bft) W-SW 247 11,9 C 19,1 C
19.06.2012 08:16 19,1 C 63 % 1022,8 hPa 0,0 l/m 4,3 km/h (1 Bft) NW 315 11,9 C 19,1 C
19.06.2012 08:21 19,1 C 63 % 1022,7 hPa 0,0 l/m 4,0 km/h (1 Bft) NW 315 11,9 C 19,1 C
19.06.2012 08:26 19,2 C 63 % 1022,7 hPa 0,0 l/m 4,7 km/h (1 Bft) W 270 12,0 C 19,2 C
19.06.2012 08:31 19,3 C 62 % 1022,8 hPa 0,0 l/m 0,0 km/h (0 Bft) W-SW 247 11,8 C 19,3 C
19.06.2012 08:36 19,5 C 62 % 1022,7 hPa 0,0 l/m 1,8 km/h (1 Bft) SW 225 12,0 C 19,5 C
19.06.2012 08:41 19,6 C 61 % 1022,8 hPa 0,0 l/m 0,0 km/h (0 Bft) W-NW 292 11,9 C 19,6 C
19.06.2012 08:46 19,6 C 61 % 1022,7 hPa 0,0 l/m 2,5 km/h (1 Bft) W-NW 292 11,9 C 19,6 C
19.06.2012 08:51 19,8 C 60 % 1022,7 hPa 0,0 l/m 3,6 km/h (1 Bft) S-SW 202 11,8 C 19,8 C
19.06.2012 08:56 19,9 C 60 % 1022,7 hPa 0,0 l/m 2,5 km/h (1 Bft) S 180 11,9 C 19,9 C
19.06.2012 09:01 19,9 C 58 % 1022,8 hPa 0,0 l/m 0,0 km/h (0 Bft) N-NO 22 11,4 C 19,9 C
19.06.2012 09:06 19,9 C 58 % 1022,7 hPa 0,0 l/m 0,0 km/h (0 Bft) S 180 11,4 C 19,9 C
19.06.2012 09:11 20,1 C 58 % 1022,8 hPa 0,0 l/m 4,3 km/h (1 Bft) W-NW 292 11,6 C 20,1 C
19.06.2012 09:16 20,0 C 57 % 1022,8 hPa 0,0 l/m 2,5 km/h (1 Bft) W-SW 247 11,2 C 20,0 C
19.06.2012 09:21 20,0 C 57 % 1022,9 hPa 0,0 l/m 3,2 km/h (1 Bft) W-SW 247 11,2 C 20,0 C
19.06.2012 09:26 20,2 C 57 % 1022,8 hPa 0,0 l/m 1,8 km/h (1 Bft) W-NW 292 11,4 C 20,2 C
19.06.2012 09:31 20,4 C 56 % 1022,9 hPa 0,0 l/m 0,0 km/h (0 Bft) W-SW 247 11,3 C 20,4 C
19.06.2012 09:36 20,4 C 55 % 1023,0 hPa 0,0 l/m 0,0 km/h (0 Bft) N-NO 22 11,1 C 20,4 C
19.06.2012 09:41 20,4 C 55 % 1023,1 hPa 0,0 l/m 2,5 km/h (1 Bft) W-NW 292 11,1 C 20,4 C
19.06.2012 09:46 20,4 C 55 % 1023,0 hPa 0,0 l/m 0,0 km/h (0 Bft) O-NO 67 11,1 C 20,4 C
19.06.2012 09:51 20,5 C 55 % 1023,0 hPa 0,0 l/m 2,9 km/h (1 Bft) N-NO 22 11,1 C 20,5 C
19.06.2012 09:56 20,4 C 55 % 1023,2 hPa 0,0 l/m 0,0 km/h (0 Bft) W 270 11,1 C 20,4 C
19.06.2012 10:01 20,6 C 55 % 1023,1 hPa 0,0 l/m 1,8 km/h (1 Bft) W 270 11,2 C 20,6 C
19.06.2012 10:06 20,9 C 55 % 1023,0 hPa 0,0 l/m 1,4 km/h (1 Bft) N 360 11,5 C 20,9 C
19.06.2012 10:11 21,2 C 54 % 1023,0 hPa 0,0 l/m 0,0 km/h (0 Bft) NW 315 11,5 C 21,2 C
19.06.2012 10:16 21,4 C 53 % 1023,0 hPa 0,0 l/m 5,8 km/h (2 Bft) NW 315 11,4 C 21,4 C
19.06.2012 10:21 21,4 C 53 % 1023,0 hPa 0,0 l/m 5,8 km/h (2 Bft) W-SW 247 11,4 C 21,4 C
19.06.2012 10:26 21,6 C 53 % 1023,1 hPa 0,0 l/m 9,7 km/h (2 Bft) W-SW 247 11,6 C 21,6 C
19.06.2012 10:31 21,8 C 52 % 1023,0 hPa 0,0 l/m 2,2 km/h (1 Bft) W-NW 292 11,5 C 21,8 C
19.06.2012 10:36 21,8 C 52 % 1023,1 hPa 0,0 l/m 4,0 km/h (1 Bft) S-SW 202 11,5 C 21,8 C
19.06.2012 10:41 21,8 C 51 % 1022,8 hPa 0,0 l/m 5,0 km/h (1 Bft) W-SW 247 11,2 C 21,8 C
19.06.2012 10:46 21,9 C 52 % 1022,9 hPa 0,0 l/m 5,0 km/h (1 Bft) NW 315 11,6 C 21,9 C
19.06.2012 10:51 21,9 C 51 % 1022,8 hPa 0,0 l/m 2,9 km/h (1 Bft) W-NW 292 11,3 C 21,9 C
19.06.2012 10:56 21,9 C 50 % 1022,9 hPa 0,0 l/m 0,0 km/h (0 Bft) NW 315 11,0 C 21,9 C
19.06.2012 11:01 21,9 C 50 % 1022,9 hPa 0,0 l/m 0,0 km/h (0 Bft) W 270 11,0 C 21,9 C
19.06.2012 11:06 21,8 C 50 % 1022,8 hPa 0,0 l/m 1,4 km/h (1 Bft) S 180 10,9 C 21,8 C
19.06.2012 11:11 21,8 C 50 % 1022,8 hPa 0,0 l/m 1,8 km/h (1 Bft) S-SW 202 10,9 C 21,8 C
19.06.2012 11:16 21,9 C 51 % 1022,7 hPa 0,0 l/m 0,0 km/h (0 Bft) W-NW 292 11,3 C 21,9 C
19.06.2012 11:21 22,4 C 50 % 1022,8 hPa 0,0 l/m 0,0 km/h (0 Bft) W 270 11,5 C 22,4 C
19.06.2012 11:26 22,6 C 50 % 1022,9 hPa 0,0 l/m 6,5 km/h (2 Bft) W-SW 247 11,6 C 22,6 C
19.06.2012 11:31 22,8 C 49 % 1022,7 hPa 0,0 l/m 4,0 km/h (1 Bft) NW 315 11,5 C 22,8 C
19.06.2012 11:36 22,6 C 48 % 1022,7 hPa 0,0 l/m 5,4 km/h (1 Bft) W-SW 247 11,0 C 22,6 C
19.06.2012 11:41 22,6 C 48 % 1022,8 hPa 0,0 l/m 6,1 km/h (2 Bft) W-SW 247 11,0 C 22,6 C
19.06.2012 11:46 22,4 C 48 % 1022,8 hPa 0,0 l/m 1,1 km/h (1 Bft) O-SO 112 10,8 C 22,4 C
19.06.2012 11:51 22,2 C 49 % 1022,9 hPa 0,0 l/m 3,2 km/h (1 Bft) S-SW 202 11,0 C 22,2 C
19.06.2012 11:56 22,2 C 49 % 1022,9 hPa 0,0 l/m 0,0 km/h (0 Bft) S 180 11,0 C 22,2 C
19.06.2012 12:01 22,1 C 48 % 1022,6 hPa 0,0 l/m 1,4 km/h (1 Bft) N 360 10,6 C 22,1 C
19.06.2012 12:06 22,1 C 48 % 1022,6 hPa 0,0 l/m 4,0 km/h (1 Bft) NW 315 10,6 C 22,1 C
19.06.2012 12:11 22,2 C 48 % 1022,6 hPa 0,0 l/m 0,0 km/h (0 Bft) S-SO 157 10,7 C 22,2 C
19.06.2012 12:16 22,3 C 49 % 1022,4 hPa 0,0 l/m 4,0 km/h (1 Bft) W-SW 247 11,1 C 22,3 C
19.06.2012 12:21 22,4 C 49 % 1022,4 hPa 0,0 l/m 0,0 km/h (0 Bft) O-NO 67 11,2 C 22,4 C
19.06.2012 12:26 22,5 C 48 % 1022,3 hPa 0,0 l/m 6,1 km/h (2 Bft) W-SW 247 10,9 C 22,5 C
19.06.2012 12:31 22,7 C 48 % 1022,2 hPa 0,0 l/m 0,0 km/h (0 Bft) S 180 11,1 C 22,7 C
19.06.2012 12:36 22,9 C 47 % 1022,2 hPa 0,0 l/m 2,9 km/h (1 Bft) N-NW 337 11,0 C 22,9 C
19.06.2012 12:41 22,8 C 46 % 1022,2 hPa 0,0 l/m 0,0 km/h (0 Bft) SO 135 10,6 C 22,8 C
19.06.2012 12:46 22,7 C 46 % 1022,3 hPa 0,0 l/m 2,5 km/h (1 Bft) W-SW 247 10,5 C 22,7 C
19.06.2012 12:51 22,9 C 45 % 1022,2 hPa 0,0 l/m 0,0 km/h (0 Bft) O-NO 67 10,3 C 22,9 C
19.06.2012 12:56 22,9 C 46 % 1022,2 hPa 0,0 l/m 3,6 km/h (1 Bft) NW 315 10,7 C 22,9 C
19.06.2012 13:01 23,2 C 46 % 1022,1 hPa 0,0 l/m 2,5 km/h (1 Bft) W 270 10,9 C 23,2 C
19.06.2012 13:06 23,5 C 46 % 1022,1 hPa 0,0 l/m 6,8 km/h (2 Bft) W-NW 292 11,2 C 23,5 C
19.06.2012 13:11 23,7 C 44 % 1022,1 hPa 0,0 l/m 1,4 km/h (1 Bft) S-SO 157 10,7 C 23,7 C
19.06.2012 13:16 23,8 C 45 % 1022,1 hPa 0,0 l/m 2,9 km/h (1 Bft) W-NW 292 11,1 C 23,8 C
19.06.2012 13:21 24,1 C 44 % 1021,9 hPa 0,0 l/m 2,2 km/h (1 Bft) O 90 11,1 C 24,1 C
19.06.2012 13:26 24,1 C 44 % 1022,2 hPa 0,0 l/m 0,0 km/h (0 Bft) S 180 11,1 C 24,1 C
19.06.2012 13:31 24,1 C 44 % 1022,1 hPa 0,0 l/m 1,8 km/h (1 Bft) W 270 11,1 C 24,1 C
19.06.2012 13:36 23,8 C 44 % 1021,9 hPa 0,0 l/m 0,0 km/h (0 Bft) O-NO 67 10,8 C 23,8 C
19.06.2012 13:41 23,6 C 44 % 1021,9 hPa 0,0 l/m 3,6 km/h (1 Bft) W-SW 247 10,6 C 23,6 C
19.06.2012 13:46 23,4 C 45 % 1021,8 hPa 0,0 l/m 0,0 km/h (0 Bft) N-NO 22 10,8 C 23,4 C
19.06.2012 13:51 23,3 C 45 % 1021,6 hPa 0,0 l/m 2,5 km/h (1 Bft) NW 315 10,7 C 23,3 C
19.06.2012 13:56 23,2 C 45 % 1021,8 hPa 0,0 l/m 0,0 km/h (0 Bft) N 360 10,6 C 23,2 C
19.06.2012 14:01 23,1 C 45 % 1021,7 hPa 0,0 l/m 3,2 km/h (1 Bft) NW 315 10,5 C 23,1 C
19.06.2012 14:06 23,3 C 45 % 1021,6 hPa 0,0 l/m 0,0 km/h (0 Bft) N 360 10,7 C 23,3 C
19.06.2012 14:11 23,3 C 45 % 1021,6 hPa 0,0 l/m 0,0 km/h (0 Bft) N 360 10,7 C 23,3 C
19.06.2012 14:16 23,4 C 45 % 1021,5 hPa 0,0 l/m 1,4 km/h (1 Bft) O 90 10,8 C 23,4 C
19.06.2012 14:21 23,6 C 45 % 1021,5 hPa 0,0 l/m 0,0 km/h (0 Bft) S 180 11,0 C 23,6 C
19.06.2012 14:26 23,9 C 44 % 1021,4 hPa 0,0 l/m 0,0 km/h (0 Bft) O 90 10,9 C 23,9 C
19.06.2012 14:31 23,9 C 44 % 1021,4 hPa 0,0 l/m 9,4 km/h (2 Bft) O 90 10,9 C 23,9 C
19.06.2012 14:36 24,0 C 44 % 1021,4 hPa 0,0 l/m 9,4 km/h (2 Bft) O 90 11,0 C 24,0 C
19.06.2012 14:41 23,9 C 44 % 1021,5 hPa 0,0 l/m 3,6 km/h (1 Bft) SO 135 10,9 C 23,9 C
19.06.2012 14:46 24,1 C 44 % 1021,5 hPa 0,0 l/m 5,8 km/h (2 Bft) O 90 11,1 C 24,1 C
19.06.2012 14:51 23,8 C 44 % 1021,5 hPa 0,0 l/m 1,1 km/h (1 Bft) O-SO 112 10,8 C 23,8 C
19.06.2012 14:56 23,6 C 45 % 1021,5 hPa 0,0 l/m 5,0 km/h (1 Bft) S-SW 202 11,0 C 23,6 C
19.06.2012 15:01 23,6 C 44 % 1021,4 hPa 0,0 l/m 4,0 km/h (1 Bft) O-SO 112 10,6 C 23,6 C
19.06.2012 15:06 23,5 C 44 % 1021,4 hPa 0,0 l/m 4,3 km/h (1 Bft) O-SO 112 10,5 C 23,5 C
19.06.2012 15:11 23,8 C 44 % 1021,3 hPa 0,0 l/m 3,2 km/h (1 Bft) O-NO 67 10,8 C 23,8 C
19.06.2012 15:16 23,8 C 44 % 1021,6 hPa 0,0 l/m 0,0 km/h (0 Bft) O-NO 67 10,8 C 23,8 C
19.06.2012 15:21 23,9 C 44 % 1021,4 hPa 0,0 l/m 4,0 km/h (1 Bft) O 90 10,9 C 23,9 C
19.06.2012 15:26 23,9 C 44 % 1021,4 hPa 0,0 l/m 4,0 km/h (1 Bft) O-NO 67 10,9 C 23,9 C
19.06.2012 15:31 24,0 C 43 % 1021,3 hPa 0,0 l/m 3,6 km/h (1 Bft) O-SO 112 10,6 C 24,0 C
19.06.2012 15:36 24,1 C 43 % 1021,2 hPa 0,0 l/m 5,8 km/h (2 Bft) NO 45 10,7 C 24,1 C
19.06.2012 15:41 23,9 C 43 % 1021,1 hPa 0,0 l/m 3,2 km/h (1 Bft) S 180 10,5 C 23,9 C
19.06.2012 15:46 23,9 C 43 % 1021,1 hPa 0,0 l/m 1,8 km/h (1 Bft) NO 45 10,5 C 23,9 C
19.06.2012 15:51 23,9 C 43 % 1021,1 hPa 0,0 l/m 3,2 km/h (1 Bft) O 90 10,5 C 23,9 C
19.06.2012 15:56 23,8 C 43 % 1021,0 hPa 0,0 l/m 1,8 km/h (1 Bft) S-SO 157 10,5 C 23,8 C
19.06.2012 16:01 23,8 C 44 % 1021,0 hPa 0,0 l/m 1,1 km/h (1 Bft) O-SO 112 10,8 C 23,8 C
19.06.2012 16:06 23,8 C 44 % 1021,0 hPa 0,0 l/m 2,2 km/h (1 Bft) O 90 10,8 C 23,8 C
19.06.2012 16:11 23,9 C 44 % 1021,0 hPa 0,0 l/m 1,8 km/h (1 Bft) SO 135 10,9 C 23,9 C
19.06.2012 16:16 24,1 C 44 % 1020,7 hPa 0,0 l/m 1,4 km/h (1 Bft) O 90 11,1 C 24,1 C
19.06.2012 16:21 24,1 C 43 % 1020,8 hPa 0,0 l/m 1,1 km/h (1 Bft) O 90 10,7 C 24,1 C
19.06.2012 16:26 23,9 C 44 % 1020,7 hPa 0,0 l/m 3,2 km/h (1 Bft) O 90 10,9 C 23,9 C
19.06.2012 16:31 23,9 C 44 % 1020,7 hPa 0,0 l/m 1,4 km/h (1 Bft) SO 135 10,9 C 23,9 C
19.06.2012 16:36 23,9 C 44 % 1020,7 hPa 0,0 l/m 8,6 km/h (2 Bft) O-SO 112 10,9 C 23,9 C
19.06.2012 16:41 23,9 C 44 % 1020,5 hPa 0,0 l/m 5,0 km/h (1 Bft) O-SO 112 10,9 C 23,9 C
19.06.2012 16:46 23,8 C 44 % 1020,5 hPa 0,0 l/m 0,0 km/h (0 Bft) SO 135 10,8 C 23,8 C
19.06.2012 16:51 23,9 C 45 % 1020,5 hPa 0,0 l/m 3,6 km/h (1 Bft) SO 135 11,2 C 23,9 C
19.06.2012 16:56 24,1 C 44 % 1020,6 hPa 0,0 l/m 4,0 km/h (1 Bft) O-NO 67 11,1 C 24,1 C
19.06.2012 17:01 23,9 C 44 % 1020,5 hPa 0,0 l/m 3,2 km/h (1 Bft) SO 135 10,9 C 23,9 C
19.06.2012 17:06 24,1 C 44 % 1020,4 hPa 0,0 l/m 2,5 km/h (1 Bft) O-NO 67 11,1 C 24,1 C
19.06.2012 17:11 24,0 C 44 % 1020,3 hPa 0,0 l/m 0,0 km/h (0 Bft) SO 135 11,0 C 24,0 C
19.06.2012 17:16 24,1 C 44 % 1020,3 hPa 0,0 l/m 3,2 km/h (1 Bft) O-NO 67 11,1 C 24,1 C
19.06.2012 17:21 24,2 C 44 % 1020,2 hPa 0,0 l/m 6,5 km/h (2 Bft) O-SO 112 11,2 C 24,2 C
19.06.2012 17:26 24,3 C 44 % 1020,3 hPa 0,0 l/m 5,4 km/h (1 Bft) S-SO 157 11,3 C 24,3 C
19.06.2012 17:31 24,4 C 44 % 1020,2 hPa 0,0 l/m 0,0 km/h (0 Bft) SO 135 11,3 C 24,4 C
19.06.2012 17:36 24,4 C 44 % 1020,2 hPa 0,0 l/m 4,3 km/h (1 Bft) O 90 11,3 C 24,4 C
19.06.2012 17:41 24,2 C 44 % 1020,2 hPa 0,0 l/m 4,7 km/h (1 Bft) SO 135 11,2 C 24,2 C
19.06.2012 17:46 23,9 C 44 % 1020,1 hPa 0,0 l/m 0,0 km/h (0 Bft) SO 135 10,9 C 23,9 C
19.06.2012 17:51 23,8 C 44 % 1020,0 hPa 0,0 l/m 7,9 km/h (2 Bft) SO 135 10,8 C 23,8 C
19.06.2012 17:56 23,6 C 45 % 1019,8 hPa 0,0 l/m 8,6 km/h (2 Bft) O-NO 67 11,0 C 23,6 C
19.06.2012 18:01 23,5 C 46 % 1019,5 hPa 0,0 l/m 9,4 km/h (2 Bft) O 90 11,2 C 23,5 C
19.06.2012 18:06 23,4 C 46 % 1019,5 hPa 0,0 l/m 5,0 km/h (1 Bft) O 90 11,1 C 23,4 C
19.06.2012 18:11 23,4 C 47 % 1019,6 hPa 0,0 l/m 5,4 km/h (1 Bft) O-SO 112 11,4 C 23,4 C
19.06.2012 18:16 23,4 C 46 % 1019,4 hPa 0,0 l/m 5,8 km/h (2 Bft) O-NO 67 11,1 C 23,4 C
19.06.2012 18:21 23,3 C 47 % 1019,4 hPa 0,0 l/m 8,3 km/h (2 Bft) O-NO 67 11,3 C 23,3 C
19.06.2012 18:26 23,4 C 47 % 1019,6 hPa 0,0 l/m 9,0 km/h (2 Bft) O 90 11,4 C 23,4 C
19.06.2012 18:31 23,3 C 47 % 1019,7 hPa 0,0 l/m 1,1 km/h (1 Bft) SO 135 11,3 C 23,3 C
19.06.2012 18:36 23,4 C 47 % 1019,6 hPa 0,0 l/m 6,8 km/h (2 Bft) O 90 11,4 C 23,4 C
19.06.2012 18:41 23,3 C 47 % 1019,7 hPa 0,0 l/m 4,7 km/h (1 Bft) S-SO 157 11,3 C 23,3 C
19.06.2012 18:46 23,4 C 48 % 1019,7 hPa 0,0 l/m 5,8 km/h (2 Bft) O 90 11,8 C 23,4 C
19.06.2012 18:51 23,4 C 48 % 1019,6 hPa 0,0 l/m 4,7 km/h (1 Bft) SO 135 11,8 C 23,4 C
19.06.2012 18:56 23,3 C 47 % 1019,5 hPa 0,0 l/m 1,8 km/h (1 Bft) O-SO 112 11,3 C 23,3 C
19.06.2012 19:01 23,1 C 48 % 1019,7 hPa 0,0 l/m 1,1 km/h (1 Bft) O 90 11,5 C 23,1 C
19.06.2012 19:06 23,1 C 48 % 1019,7 hPa 0,0 l/m 1,1 km/h (1 Bft) O-SO 112 11,5 C 23,1 C
19.06.2012 19:11 22,9 C 48 % 1019,6 hPa 0,0 l/m 1,4 km/h (1 Bft) O-NO 67 11,3 C 22,9 C
19.06.2012 19:16 22,9 C 49 % 1019,7 hPa 0,0 l/m 4,7 km/h (1 Bft) O 90 11,6 C 22,9 C
19.06.2012 19:21 22,8 C 49 % 1019,7 hPa 0,0 l/m 0,0 km/h (0 Bft) O 90 11,5 C 22,8 C
19.06.2012 19:26 22,8 C 49 % 1019,6 hPa 0,0 l/m 2,5 km/h (1 Bft) O 90 11,5 C 22,8 C
19.06.2012 19:31 22,6 C 50 % 1019,6 hPa 0,0 l/m 1,1 km/h (1 Bft) O-SO 112 11,6 C 22,6 C
19.06.2012 19:36 22,4 C 50 % 1019,6 hPa 0,0 l/m 4,0 km/h (1 Bft) O 90 11,5 C 22,4 C
19.06.2012 19:41 22,3 C 51 % 1019,6 hPa 0,0 l/m 1,1 km/h (1 Bft) O-NO 67 11,7 C 22,3 C
19.06.2012 19:46 22,3 C 51 % 1019,6 hPa 0,0 l/m 4,3 km/h (1 Bft) O-NO 67 11,7 C 22,3 C
19.06.2012 19:51 22,2 C 52 % 1019,4 hPa 0,0 l/m 0,0 km/h (0 Bft) O 90 11,9 C 22,2 C
19.06.2012 19:56 22,1 C 52 % 1019,4 hPa 0,0 l/m 2,2 km/h (1 Bft) O 90 11,8 C 22,1 C
19.06.2012 20:01 22,1 C 52 % 1019,4 hPa 0,0 l/m 1,4 km/h (1 Bft) O-NO 67 11,8 C 22,1 C
19.06.2012 20:06 21,9 C 53 % 1019,4 hPa 0,0 l/m 4,0 km/h (1 Bft) O-NO 67 11,9 C 21,9 C
19.06.2012 20:11 21,9 C 53 % 1019,6 hPa 0,0 l/m 1,8 km/h (1 Bft) O 90 11,9 C 21,9 C
19.06.2012 20:16 21,8 C 53 % 1019,6 hPa 0,0 l/m 4,0 km/h (1 Bft) O-NO 67 11,8 C 21,8 C
19.06.2012 20:21 21,8 C 53 % 1019,6 hPa 0,0 l/m 1,1 km/h (1 Bft) O 90 11,8 C 21,8 C
19.06.2012 20:26 21,7 C 53 % 1019,6 hPa 0,0 l/m 2,2 km/h (1 Bft) O 90 11,7 C 21,7 C
19.06.2012 20:31 21,6 C 54 % 1019,6 hPa 0,0 l/m 2,2 km/h (1 Bft) O 90 11,9 C 21,6 C
19.06.2012 20:36 21,6 C 54 % 1019,6 hPa 0,0 l/m 0,0 km/h (0 Bft) O-NO 67 11,9 C 21,6 C
19.06.2012 20:41 21,4 C 56 % 1019,5 hPa 0,0 l/m 2,2 km/h (1 Bft) O-NO 67 12,3 C 21,4 C
19.06.2012 20:46 21,3 C 57 % 1019,7 hPa 0,0 l/m 2,2 km/h (1 Bft) O-SO 112 12,4 C 21,3 C
19.06.2012 20:51 21,1 C 58 % 1019,7 hPa 0,0 l/m 0,0 km/h (0 Bft) O-SO 112 12,5 C 21,1 C
19.06.2012 20:56 21,1 C 59 % 1019,6 hPa 0,0 l/m 0,0 km/h (0 Bft) O-SO 112 12,8 C 21,1 C
19.06.2012 21:01 20,9 C 60 % 1019,5 hPa 0,0 l/m 0,0 km/h (0 Bft) O-NO 67 12,8 C 20,9 C
19.06.2012 21:06 20,8 C 61 % 1019,5 hPa 0,0 l/m 0,0 km/h (0 Bft) O-NO 67 13,0 C 20,8 C
19.06.2012 21:11 20,6 C 61 % 1019,7 hPa 0,0 l/m 2,9 km/h (1 Bft) O-NO 67 12,8 C 20,6 C
19.06.2012 21:16 20,4 C 62 % 1019,6 hPa 0,0 l/m 1,4 km/h (1 Bft) O-SO 112 12,9 C 20,4 C
19.06.2012 21:21 20,2 C 64 % 1019,5 hPa 0,0 l/m 2,5 km/h (1 Bft) O-NO 67 13,2 C 20,2 C
19.06.2012 21:26 20,1 C 64 % 1019,4 hPa 0,0 l/m 3,6 km/h (1 Bft) O 90 13,1 C 20,1 C
19.06.2012 21:31 19,9 C 65 % 1019,5 hPa 0,0 l/m 2,2 km/h (1 Bft) O 90 13,1 C 19,9 C
19.06.2012 21:36 19,8 C 66 % 1019,7 hPa 0,5 l/m 2,5 km/h (1 Bft) O-NO 67 13,3 C 19,8 C
19.06.2012 21:41 19,6 C 66 % 1019,5 hPa 0,0 l/m 4,0 km/h (1 Bft) O-SO 112 13,1 C 19,6 C
19.06.2012 21:46 19,5 C 67 % 1019,4 hPa 0,0 l/m 5,8 km/h (2 Bft) O-NO 67 13,2 C 19,5 C
19.06.2012 21:51 19,3 C 68 % 1019,5 hPa 0,0 l/m 4,0 km/h (1 Bft) O-NO 67 13,2 C 19,3 C
19.06.2012 21:56 19,2 C 68 % 1019,4 hPa 0,0 l/m 4,3 km/h (1 Bft) O-NO 67 13,1 C 19,2 C
19.06.2012 22:01 19,0 C 68 % 1019,4 hPa 0,0 l/m 3,2 km/h (1 Bft) O-NO 67 13,0 C 19,0 C
19.06.2012 22:06 18,9 C 68 % 1019,2 hPa 0,0 l/m 4,7 km/h (1 Bft) O-NO 67 12,9 C 18,9 C
19.06.2012 22:11 18,9 C 68 % 1019,2 hPa 0,0 l/m 1,4 km/h (1 Bft) O-NO 67 12,9 C 18,9 C
19.06.2012 22:16 18,9 C 69 % 1019,4 hPa 0,0 l/m 6,1 km/h (2 Bft) O-NO 67 13,1 C 18,9 C
19.06.2012 22:21 18,8 C 69 % 1019,2 hPa 0,0 l/m 1,4 km/h (1 Bft) O 90 13,0 C 18,8 C
19.06.2012 22:26 18,8 C 70 % 1019,1 hPa 0,0 l/m 2,5 km/h (1 Bft) O 90 13,2 C 18,8 C
19.06.2012 22:31 18,8 C 70 % 1019,3 hPa 0,0 l/m 0,0 km/h (0 Bft) O-NO 67 13,2 C 18,8 C
19.06.2012 22:36 18,8 C 70 % 1019,3 hPa 0,0 l/m 3,6 km/h (1 Bft) O 90 13,2 C 18,8 C
19.06.2012 22:41 18,7 C 70 % 1019,2 hPa 0,0 l/m 1,8 km/h (1 Bft) O-NO 67 13,1 C 18,7 C
19.06.2012 22:46 18,7 C 69 % 1019,2 hPa 0,0 l/m 4,0 km/h (1 Bft) O-NO 67 12,9 C 18,7 C
19.06.2012 22:51 18,6 C 70 % 1019,2 hPa 0,0 l/m 1,1 km/h (1 Bft) O-NO 67 13,0 C 18,6 C
19.06.2012 22:56 18,6 C 70 % 1019,2 hPa 0,0 l/m 0,0 km/h (0 Bft) O-NO 67 13,0 C 18,6 C
19.06.2012 23:01 18,5 C 71 % 1019,2 hPa 0,0 l/m 0,0 km/h (0 Bft) NO 45 13,1 C 18,5 C
19.06.2012 23:06 18,4 C 71 % 1019,2 hPa 0,0 l/m 5,0 km/h (1 Bft) N-NO 22 13,0 C 18,4 C
19.06.2012 23:11 18,4 C 71 % 1019,3 hPa 0,0 l/m 0,0 km/h (0 Bft) O-SO 112 13,0 C 18,4 C
19.06.2012 23:16 18,3 C 71 % 1019,3 hPa 0,0 l/m 2,5 km/h (1 Bft) NO 45 12,9 C 18,3 C
19.06.2012 23:21 18,3 C 71 % 1019,3 hPa 0,0 l/m 2,5 km/h (1 Bft) O-NO 67 12,9 C 18,3 C
19.06.2012 23:26 18,3 C 70 % 1019,3 hPa 0,0 l/m 4,7 km/h (1 Bft) NO 45 12,7 C 18,3 C
19.06.2012 23:31 18,3 C 70 % 1019,3 hPa 0,0 l/m 1,1 km/h (1 Bft) NO 45 12,7 C 18,3 C
19.06.2012 23:36 18,3 C 70 % 1019,4 hPa 0,0 l/m 0,0 km/h (0 Bft) O-NO 67 12,7 C 18,3 C
19.06.2012 23:41 18,3 C 70 % 1019,4 hPa 0,0 l/m 0,0 km/h (0 Bft) NO 45 12,7 C 18,3 C
19.06.2012 23:46 18,3 C 70 % 1019,2 hPa 0,0 l/m 4,0 km/h (1 Bft) O-NO 67 12,7 C 18,3 C
19.06.2012 23:51 18,3 C 70 % 1019,3 hPa 0,0 l/m 2,2 km/h (1 Bft) O-NO 67 12,7 C 18,3 C
19.06.2012 23:56 18,3 C 71 % 1019,2 hPa 0,0 l/m 0,0 km/h (0 Bft) O-NO 67 12,9 C 18,3 C
_ Min-Zeit 04:56 15:31 22:26 - 00:01 - - 04:01 04:56
Minimum _ 13,3 C 43 % 1019,1 hPa - 0,0 km/h (0 Bft) - - 8,9 C 13,3 C
_ Max-Zeit 17:31 05:51 09:56 21:36 10:26 - - 21:36 17:31
Maximum _ 24,4 C 78 % 1023,2 hPa 0,5 l/m 9,7 km/h
W-SW (2 Bft)
- - 13,3 C 24,4 C
Durchschnitt _ 19,8 C 59 % 1021,3 hPa #0,5 l/m 2,1 km/h (1 Bft) O-NO - 11,1 C 19,8 C
(c) by David Heller